sensor_id;sensor_type;location;lat;lon;timestamp;temperature;humidity
4725;DHT22;2376;53.544;10.226;2024-01-15T00:00:13;2.10;99.90
4725;DHT22;2376;53.544;10.226;2024-01-15T00:02:39;2.00;99.90
4725;DHT22;2376;53.544;10.226;2024-01-15T00:05:06;2.00;99.90
4725;DHT22;2376;53.544;10.226;2024-01-15T00:07:33;2.00;99.90
4725;DHT22;2376;53.544;10.226;2024-01-15T00:10:00;2.00;99.90
4725;DHT22;2376;53.544;10.226;2024-01-15T00:12:26;2.00;99.90
4725;DHT22;2376;53.544;10.226;2024-01-15T00:14:54;2.00;99.90
4725;DHT22;2376;53.544;10.226;2024-01-15T00:17:21;2.00;99.90
4725;DHT22;2376;53.544;10.226;2024-01-15T00:19:48;2.00;99.90
4725;DHT22;2376;53.544;10.226;2024-01-15T00:22:14;2.00;99.90
4725;DHT22;2376;53.544;10.226;2024-01-15T00:24:41;2.10;99.90
4725;DHT22;2376;53.544;10.226;2024-01-15T00:27:08;2.10;99.90
4725;DHT22;2376;53.544;10.226;2024-01-15T00:29:34;2.10;99.90
4725;DHT22;2376;53.544;10.226;2024-01-15T00:32:02;2.00;99.90
4725;DHT22;2376;53.544;10.226;2024-01-15T00:34:29;2.00;99.90
4725;DHT22;2376;53.544;10.226;2024-01-15T00:36:56;2.00;99.90
4725;DHT22;2376;53.544;10.226;2024-01-15T00:39:23;2.00;99.90
4725;DHT22;2376;53.544;10.226;2024-01-15T00:41:49;2.00;99.90
4725;DHT22;2376;53.544;10.226;2024-01-15T00:44:16;2.00;99.90
4725;DHT22;2376;53.544;10.226;2024-01-15T00:46:43;2.00;99.90
4725;DHT22;2376;53.544;10.226;2024-01-15T00:49:12;2.00;99.90
4725;DHT22;2376;53.544;10.226;2024-01-15T00:51:39;2.00;99.90
4725;DHT22;2376;53.544;10.226;2024-01-15T00:54:06;2.10;99.90
4725;DHT22;2376;53.544;10.226;2024-01-15T00:56:32;2.10;99.90
4725;DHT22;2376;53.544;10.226;2024-01-15T00:59:00;2.00;99.90
4725;DHT22;2376;53.544;10.226;2024-01-15T01:01:27;2.10;99.90
4725;DHT22;2376;53.544;10.226;2024-01-15T01:03:53;2.00;99.90
4725;DHT22;2376;53.544;10.226;2024-01-15T01:06:21;2.00;99.90
4725;DHT22;2376;53.544;10.226;2024-01-15T01:08:48;2.00;99.90
4725;DHT22;2376;53.544;10.226;2024-01-15T01:11:15;2.00;99.90
4725;DHT22;2376;53.544;10.226;2024-01-15T01:13:42;2.00;99.90
4725;DHT22;2376;53.544;10.226;2024-01-15T01:16:09;2.00;99.90
4725;DHT22;2376;53.544;10.226;2024-01-15T01:18:35;2.00;99.90
4725;DHT22;2376;53.544;10.226;2024-01-15T01:21:02;2.00;99.90
4725;DHT22;2376;53.544;10.226;2024-01-15T01:23:30;2.00;99.90
4725;DHT22;2376;53.544;10.226;2024-01-15T01:25:57;2.00;99.90
4725;DHT22;2376;53.544;10.226;2024-01-15T01:28:24;2.00;99.90
4725;DHT22;2376;53.544;10.226;2024-01-15T01:30:50;2.00;99.90
4725;DHT22;2376;53.544;10.226;2024-01-15T01:33:17;2.00;99.90
4725;DHT22;2376;53.544;10.226;2024-01-15T01:35:44;2.00;99.90
4725;DHT22;2376;53.544;10.226;2024-01-15T01:38:12;2.00;99.90
4725;DHT22;2376;53.544;10.226;2024-01-15T01:40:40;2.00;99.90
4725;DHT22;2376;53.544;10.226;2024-01-15T01:43:08;2.00;99.90
4725;DHT22;2376;53.544;10.226;2024-01-15T01:45:35;2.00;99.90
4725;DHT22;2376;53.544;10.226;2024-01-15T01:48:02;2.00;99.90
4725;DHT22;2376;53.544;10.226;2024-01-15T01:50:30;2.00;99.90
4725;DHT22;2376;53.544;10.226;2024-01-15T01:52:57;2.00;99.90
4725;DHT22;2376;53.544;10.226;2024-01-15T01:55:26;2.00;99.90
4725;DHT22;2376;53.544;10.226;2024-01-15T01:57:55;2.10;99.90
4725;DHT22;2376;53.544;10.226;2024-01-15T02:00:22;2.10;99.90
4725;DHT22;2376;53.544;10.226;2024-01-15T02:02:49;2.10;99.90
4725;DHT22;2376;53.544;10.226;2024-01-15T02:05:19;2.10;99.90
4725;DHT22;2376;53.544;10.226;2024-01-15T02:07:45;2.10;99.90
4725;DHT22;2376;53.544;10.226;2024-01-15T02:10:13;2.20;99.90
4725;DHT22;2376;53.544;10.226;2024-01-15T02:12:40;2.20;99.90
4725;DHT22;2376;53.544;10.226;2024-01-15T02:15:08;2.20;99.90
4725;DHT22;2376;53.544;10.226;2024-01-15T02:17:35;2.20;99.90
4725;DHT22;2376;53.544;10.226;2024-01-15T02:20:01;2.20;99.90
4725;DHT22;2376;53.544;10.226;2024-01-15T02:22:28;2.20;99.90
4725;DHT22;2376;53.544;10.226;2024-01-15T02:24:56;2.20;99.90
4725;DHT22;2376;53.544;10.226;2024-01-15T02:27:23;2.20;99.90
4725;DHT22;2376;53.544;10.226;2024-01-15T02:29:50;2.20;99.90
4725;DHT22;2376;53.544;10.226;2024-01-15T02:32:17;2.20;99.90
4725;DHT22;2376;53.544;10.226;2024-01-15T02:34:43;2.20;99.90
4725;DHT22;2376;53.544;10.226;2024-01-15T02:37:10;2.10;99.90
4725;DHT22;2376;53.544;10.226;2024-01-15T02:39:37;2.10;99.90
4725;DHT22;2376;53.544;10.226;2024-01-15T02:42:05;2.10;99.90
4725;DHT22;2376;53.544;10.226;2024-01-15T02:44:32;2.10;99.90
4725;DHT22;2376;53.544;10.226;2024-01-15T02:46:59;2.10;99.90
4725;DHT22;2376;53.544;10.226;2024-01-15T02:49:25;2.10;99.90
4725;DHT22;2376;53.544;10.226;2024-01-15T02:51:52;2.00;99.90
4725;DHT22;2376;53.544;10.226;2024-01-15T02:54:19;2.00;99.90
4725;DHT22;2376;53.544;10.226;2024-01-15T02:56:45;2.10;99.90
4725;DHT22;2376;53.544;10.226;2024-01-15T02:59:13;2.00;99.90
4725;DHT22;2376;53.544;10.226;2024-01-15T03:01:40;2.00;99.90
4725;DHT22;2376;53.544;10.226;2024-01-15T03:04:06;2.10;99.90
4725;DHT22;2376;53.544;10.226;2024-01-15T03:06:33;2.10;99.90
4725;DHT22;2376;53.544;10.226;2024-01-15T03:09:00;2.10;99.90
4725;DHT22;2376;53.544;10.226;2024-01-15T03:11:26;2.10;99.90
4725;DHT22;2376;53.544;10.226;2024-01-15T03:13:53;2.10;99.90
4725;DHT22;2376;53.544;10.226;2024-01-15T03:16:21;2.10;99.90
4725;DHT22;2376;53.544;10.226;2024-01-15T03:18:48;2.20;99.90
4725;DHT22;2376;53.544;10.226;2024-01-15T03:21:14;2.10;99.90
4725;DHT22;2376;53.544;10.226;2024-01-15T03:23:41;2.10;99.90
4725;DHT22;2376;53.544;10.226;2024-01-15T03:26:08;2.10;99.90
4725;DHT22;2376;53.544;10.226;2024-01-15T03:28:34;2.20;99.90
4725;DHT22;2376;53.544;10.226;2024-01-15T03:31:01;2.20;99.90
4725;DHT22;2376;53.544;10.226;2024-01-15T03:33:29;2.20;99.90
4725;DHT22;2376;53.544;10.226;2024-01-15T03:35:56;2.20;99.90
4725;DHT22;2376;53.544;10.226;2024-01-15T03:38:23;2.20;99.90
4725;DHT22;2376;53.544;10.226;2024-01-15T03:40:49;2.20;99.90
4725;DHT22;2376;53.544;10.226;2024-01-15T03:43:16;2.20;99.90
4725;DHT22;2376;53.544;10.226;2024-01-15T03:45:43;2.20;99.90
4725;DHT22;2376;53.544;10.226;2024-01-15T03:48:09;2.20;99.90
4725;DHT22;2376;53.544;10.226;2024-01-15T03:50:37;2.20;99.90
4725;DHT22;2376;53.544;10.226;2024-01-15T03:53:04;2.20;99.90
4725;DHT22;2376;53.544;10.226;2024-01-15T03:55:31;2.20;99.90
4725;DHT22;2376;53.544;10.226;2024-01-15T03:57:58;2.20;99.90
4725;DHT22;2376;53.544;10.226;2024-01-15T04:00:25;2.20;99.90
4725;DHT22;2376;53.544;10.226;2024-01-15T04:02:52;2.20;99.90
4725;DHT22;2376;53.544;10.226;2024-01-15T04:05:19;2.20;99.90
4725;DHT22;2376;53.544;10.226;2024-01-15T04:07:47;2.20;99.90
4725;DHT22;2376;53.544;10.226;2024-01-15T04:10:14;2.20;99.90
4725;DHT22;2376;53.544;10.226;2024-01-15T04:12:40;2.20;99.90
4725;DHT22;2376;53.544;10.226;2024-01-15T04:15:07;2.20;99.90
4725;DHT22;2376;53.544;10.226;2024-01-15T04:17:34;2.20;99.90
4725;DHT22;2376;53.544;10.226;2024-01-15T04:20:01;2.10;99.90
4725;DHT22;2376;53.544;10.226;2024-01-15T04:22:27;2.10;99.90
4725;DHT22;2376;53.544;10.226;2024-01-15T04:24:55;2.20;99.90
4725;DHT22;2376;53.544;10.226;2024-01-15T04:27:22;2.20;99.90
4725;DHT22;2376;53.544;10.226;2024-01-15T04:29:49;2.20;99.90
4725;DHT22;2376;53.544;10.226;2024-01-15T04:32:15;2.20;99.90
4725;DHT22;2376;53.544;10.226;2024-01-15T04:34:42;2.20;99.90
4725;DHT22;2376;53.544;10.226;2024-01-15T04:37:09;2.10;99.90
4725;DHT22;2376;53.544;10.226;2024-01-15T04:39:35;2.10;99.90
4725;DHT22;2376;53.544;10.226;2024-01-15T04:42:04;2.10;99.90
4725;DHT22;2376;53.544;10.226;2024-01-15T04:44:31;2.10;99.90
4725;DHT22;2376;53.544;10.226;2024-01-15T04:46:57;2.10;99.90
4725;DHT22;2376;53.544;10.226;2024-01-15T04:49:24;2.10;99.90
4725;DHT22;2376;53.544;10.226;2024-01-15T04:51:52;2.10;99.90
4725;DHT22;2376;53.544;10.226;2024-01-15T04:54:19;2.10;99.90
4725;DHT22;2376;53.544;10.226;2024-01-15T04:56:46;2.10;99.90
4725;DHT22;2376;53.544;10.226;2024-01-15T04:59:14;2.00;99.90
4725;DHT22;2376;53.544;10.226;2024-01-15T05:01:41;2.00;99.90
4725;DHT22;2376;53.544;10.226;2024-01-15T05:04:07;2.00;99.90
4725;DHT22;2376;53.544;10.226;2024-01-15T05:06:34;2.00;99.90
4725;DHT22;2376;53.544;10.226;2024-01-15T05:09:00;1.90;99.90
4725;DHT22;2376;53.544;10.226;2024-01-15T05:11:28;1.90;99.90
4725;DHT22;2376;53.544;10.226;2024-01-15T05:13:55;1.90;99.90
4725;DHT22;2376;53.544;10.226;2024-01-15T05:16:23;1.90;99.90
4725;DHT22;2376;53.544;10.226;2024-01-15T05:18:49;1.90;99.90
4725;DHT22;2376;53.544;10.226;2024-01-15T05:21:16;1.90;99.90
4725;DHT22;2376;53.544;10.226;2024-01-15T05:23:42;1.90;99.90
4725;DHT22;2376;53.544;10.226;2024-01-15T05:26:09;1.90;99.90
4725;DHT22;2376;53.544;10.226;2024-01-15T05:28:36;1.90;99.90
4725;DHT22;2376;53.544;10.226;2024-01-15T05:31:03;1.90;99.90
4725;DHT22;2376;53.544;10.226;2024-01-15T05:33:31;1.90;99.90
4725;DHT22;2376;53.544;10.226;2024-01-15T05:35:58;1.90;99.90
4725;DHT22;2376;53.544;10.226;2024-01-15T05:38:25;1.90;99.90
4725;DHT22;2376;53.544;10.226;2024-01-15T05:40:51;1.90;99.90
4725;DHT22;2376;53.544;10.226;2024-01-15T05:43:18;1.90;99.90
4725;DHT22;2376;53.544;10.226;2024-01-15T05:45:44;1.90;99.90
4725;DHT22;2376;53.544;10.226;2024-01-15T05:48:11;1.90;99.90
4725;DHT22;2376;53.544;10.226;2024-01-15T05:50:39;1.90;99.90
4725;DHT22;2376;53.544;10.226;2024-01-15T05:53:06;1.90;99.90
4725;DHT22;2376;53.544;10.226;2024-01-15T05:55:34;1.90;99.90
4725;DHT22;2376;53.544;10.226;2024-01-15T05:58:01;1.90;99.90
4725;DHT22;2376;53.544;10.226;2024-01-15T06:00:28;1.90;99.90
4725;DHT22;2376;53.544;10.226;2024-01-15T06:02:55;2.00;99.90
4725;DHT22;2376;53.544;10.226;2024-01-15T06:05:21;2.00;99.90
4725;DHT22;2376;53.544;10.226;2024-01-15T06:07:49;2.00;99.90
4725;DHT22;2376;53.544;10.226;2024-01-15T06:10:16;2.00;99.90
4725;DHT22;2376;53.544;10.226;2024-01-15T06:12:43;2.00;99.90
4725;DHT22;2376;53.544;10.226;2024-01-15T06:15:10;2.00;99.90
4725;DHT22;2376;53.544;10.226;2024-01-15T06:17:37;2.00;99.90
4725;DHT22;2376;53.544;10.226;2024-01-15T06:20:04;2.00;99.90
4725;DHT22;2376;53.544;10.226;2024-01-15T06:22:31;2.10;99.90
4725;DHT22;2376;53.544;10.226;2024-01-15T06:25:00;2.10;99.90
4725;DHT22;2376;53.544;10.226;2024-01-15T06:27:27;2.00;99.90
4725;DHT22;2376;53.544;10.226;2024-01-15T06:29:53;2.00;99.90
4725;DHT22;2376;53.544;10.226;2024-01-15T06:32:21;2.00;99.90
4725;DHT22;2376;53.544;10.226;2024-01-15T06:34:48;2.00;99.90
4725;DHT22;2376;53.544;10.226;2024-01-15T06:37:14;2.00;99.90
4725;DHT22;2376;53.544;10.226;2024-01-15T06:39:41;2.00;99.90
4725;DHT22;2376;53.544;10.226;2024-01-15T06:42:09;2.10;99.90
4725;DHT22;2376;53.544;10.226;2024-01-15T06:44:36;2.00;99.90
4725;DHT22;2376;53.544;10.226;2024-01-15T06:47:02;2.10;99.90
4725;DHT22;2376;53.544;10.226;2024-01-15T06:49:29;2.10;99.90
4725;DHT22;2376;53.544;10.226;2024-01-15T06:51:56;2.10;99.90
4725;DHT22;2376;53.544;10.226;2024-01-15T06:54:22;2.10;99.90
4725;DHT22;2376;53.544;10.226;2024-01-15T06:56:51;2.10;99.90
4725;DHT22;2376;53.544;10.226;2024-01-15T06:59:19;2.10;99.90
4725;DHT22;2376;53.544;10.226;2024-01-15T07:01:46;2.10;99.90
4725;DHT22;2376;53.544;10.226;2024-01-15T07:04:12;2.10;99.90
4725;DHT22;2376;53.544;10.226;2024-01-15T07:06:39;2.10;99.90
4725;DHT22;2376;53.544;10.226;2024-01-15T07:09:06;2.10;99.90
4725;DHT22;2376;53.544;10.226;2024-01-15T07:11:34;2.10;99.90
4725;DHT22;2376;53.544;10.226;2024-01-15T07:14:01;2.10;99.90
4725;DHT22;2376;53.544;10.226;2024-01-15T07:16:29;2.10;99.90
4725;DHT22;2376;53.544;10.226;2024-01-15T07:18:55;2.10;99.90
4725;DHT22;2376;53.544;10.226;2024-01-15T07:21:22;2.10;99.90
4725;DHT22;2376;53.544;10.226;2024-01-15T07:23:49;2.10;99.90
4725;DHT22;2376;53.544;10.226;2024-01-15T07:26:15;2.10;99.90
4725;DHT22;2376;53.544;10.226;2024-01-15T07:28:42;2.10;99.90
4725;DHT22;2376;53.544;10.226;2024-01-15T07:31:09;2.20;99.90
4725;DHT22;2376;53.544;10.226;2024-01-15T07:33:37;2.20;99.90
4725;DHT22;2376;53.544;10.226;2024-01-15T07:36:04;2.20;99.90
4725;DHT22;2376;53.544;10.226;2024-01-15T07:38:31;2.20;99.90
4725;DHT22;2376;53.544;10.226;2024-01-15T07:40:57;2.20;99.90
4725;DHT22;2376;53.544;10.226;2024-01-15T07:43:24;2.30;99.90
4725;DHT22;2376;53.544;10.226;2024-01-15T07:45:52;2.20;99.90
4725;DHT22;2376;53.544;10.226;2024-01-15T07:48:18;2.30;99.90
4725;DHT22;2376;53.544;10.226;2024-01-15T07:50:47;2.20;99.90
4725;DHT22;2376;53.544;10.226;2024-01-15T07:53:13;2.20;99.90
4725;DHT22;2376;53.544;10.226;2024-01-15T07:55:40;2.20;99.90
4725;DHT22;2376;53.544;10.226;2024-01-15T07:58:07;2.30;99.90
4725;DHT22;2376;53.544;10.226;2024-01-15T08:00:34;2.30;99.90
4725;DHT22;2376;53.544;10.226;2024-01-15T08:03:00;2.30;99.90
4725;DHT22;2376;53.544;10.226;2024-01-15T08:05:28;2.20;99.90
4725;DHT22;2376;53.544;10.226;2024-01-15T08:07:56;2.30;99.90
4725;DHT22;2376;53.544;10.226;2024-01-15T08:10:23;2.30;99.90
4725;DHT22;2376;53.544;10.226;2024-01-15T08:12:49;2.30;99.90
4725;DHT22;2376;53.544;10.226;2024-01-15T08:15:17;2.30;99.90
4725;DHT22;2376;53.544;10.226;2024-01-15T08:17:43;2.30;99.90
4725;DHT22;2376;53.544;10.226;2024-01-15T08:20:10;2.30;99.90
4725;DHT22;2376;53.544;10.226;2024-01-15T08:22:38;2.30;99.90
4725;DHT22;2376;53.544;10.226;2024-01-15T08:25:07;2.30;99.90
4725;DHT22;2376;53.544;10.226;2024-01-15T08:27:35;2.40;99.90
4725;DHT22;2376;53.544;10.226;2024-01-15T08:30:01;2.40;99.90
4725;DHT22;2376;53.544;10.226;2024-01-15T08:32:29;2.40;99.90
4725;DHT22;2376;53.544;10.226;2024-01-15T08:34:56;2.40;99.90
4725;DHT22;2376;53.544;10.226;2024-01-15T08:37:23;2.40;99.90
4725;DHT22;2376;53.544;10.226;2024-01-15T08:39:49;2.50;99.90
4725;DHT22;2376;53.544;10.226;2024-01-15T08:42:17;2.50;99.90
4725;DHT22;2376;53.544;10.226;2024-01-15T08:44:44;2.50;99.90
4725;DHT22;2376;53.544;10.226;2024-01-15T08:47:11;2.50;99.90
4725;DHT22;2376;53.544;10.226;2024-01-15T08:49:37;2.50;99.90
4725;DHT22;2376;53.544;10.226;2024-01-15T08:52:05;2.50;99.90
4725;DHT22;2376;53.544;10.226;2024-01-15T08:54:32;2.50;99.90
4725;DHT22;2376;53.544;10.226;2024-01-15T08:56:59;2.50;99.90
4725;DHT22;2376;53.544;10.226;2024-01-15T08:59:27;2.50;99.90
4725;DHT22;2376;53.544;10.226;2024-01-15T09:01:54;2.50;99.90
4725;DHT22;2376;53.544;10.226;2024-01-15T09:04:22;2.50;99.90
4725;DHT22;2376;53.544;10.226;2024-01-15T09:06:49;2.50;99.90
4725;DHT22;2376;53.544;10.226;2024-01-15T09:09:16;2.50;99.90
4725;DHT22;2376;53.544;10.226;2024-01-15T09:11:43;2.60;99.90
4725;DHT22;2376;53.544;10.226;2024-01-15T09:14:10;2.50;99.90
4725;DHT22;2376;53.544;10.226;2024-01-15T09:16:39;2.60;99.90
4725;DHT22;2376;53.544;10.226;2024-01-15T09:19:06;2.50;99.90
4725;DHT22;2376;53.544;10.226;2024-01-15T09:21:33;2.60;99.90
4725;DHT22;2376;53.544;10.226;2024-01-15T09:24:00;2.50;99.90
4725;DHT22;2376;53.544;10.226;2024-01-15T09:26:26;2.50;99.90
4725;DHT22;2376;53.544;10.226;2024-01-15T09:28:53;2.50;99.90
4725;DHT22;2376;53.544;10.226;2024-01-15T09:31:20;2.50;99.90
4725;DHT22;2376;53.544;10.226;2024-01-15T09:33:49;2.50;99.90
4725;DHT22;2376;53.544;10.226;2024-01-15T09:36:17;2.50;99.90
4725;DHT22;2376;53.544;10.226;2024-01-15T09:38:44;2.50;99.90
4725;DHT22;2376;53.544;10.226;2024-01-15T09:41:11;2.50;99.90
4725;DHT22;2376;53.544;10.226;2024-01-15T09:43:38;2.50;99.90
4725;DHT22;2376;53.544;10.226;2024-01-15T09:46:04;2.50;99.90
4725;DHT22;2376;53.544;10.226;2024-01-15T09:48:31;2.50;99.90
4725;DHT22;2376;53.544;10.226;2024-01-15T09:51:01;2.50;99.90
4725;DHT22;2376;53.544;10.226;2024-01-15T09:53:28;2.50;99.90
4725;DHT22;2376;53.544;10.226;2024-01-15T09:55:55;2.50;99.90
4725;DHT22;2376;53.544;10.226;2024-01-15T09:58:22;2.50;99.90
4725;DHT22;2376;53.544;10.226;2024-01-15T10:00:48;2.50;99.90
4725;DHT22;2376;53.544;10.226;2024-01-15T10:03:16;2.40;99.90
4725;DHT22;2376;53.544;10.226;2024-01-15T10:05:43;2.40;99.90
4725;DHT22;2376;53.544;10.226;2024-01-15T10:08:11;2.40;99.90
4725;DHT22;2376;53.544;10.226;2024-01-15T10:10:38;2.40;99.90
4725;DHT22;2376;53.544;10.226;2024-01-15T10:13:05;2.30;99.90
4725;DHT22;2376;53.544;10.226;2024-01-15T10:15:34;2.30;99.90
4725;DHT22;2376;53.544;10.226;2024-01-15T10:18:01;2.30;99.90
4725;DHT22;2376;53.544;10.226;2024-01-15T10:20:27;2.30;99.90
4725;DHT22;2376;53.544;10.226;2024-01-15T10:22:55;2.30;99.90
4725;DHT22;2376;53.544;10.226;2024-01-15T10:25:24;2.30;99.90
4725;DHT22;2376;53.544;10.226;2024-01-15T10:27:59;2.30;99.90
4725;DHT22;2376;53.544;10.226;2024-01-15T10:30:26;2.30;99.90
4725;DHT22;2376;53.544;10.226;2024-01-15T10:32:58;2.20;99.90
4725;DHT22;2376;53.544;10.226;2024-01-15T10:35:27;2.20;99.90
4725;DHT22;2376;53.544;10.226;2024-01-15T10:37:54;2.20;99.90
4725;DHT22;2376;53.544;10.226;2024-01-15T10:40:20;2.30;99.90
4725;DHT22;2376;53.544;10.226;2024-01-15T10:42:48;2.30;99.90
4725;DHT22;2376;53.544;10.226;2024-01-15T10:45:15;2.30;99.90
4725;DHT22;2376;53.544;10.226;2024-01-15T10:47:42;2.30;99.90
4725;DHT22;2376;53.544;10.226;2024-01-15T10:50:09;2.30;99.90
4725;DHT22;2376;53.544;10.226;2024-01-15T10:52:37;2.40;99.90
4725;DHT22;2376;53.544;10.226;2024-01-15T10:55:06;2.40;99.90
4725;DHT22;2376;53.544;10.226;2024-01-15T10:57:33;2.40;99.90
4725;DHT22;2376;53.544;10.226;2024-01-15T11:00:01;2.40;99.90
4725;DHT22;2376;53.544;10.226;2024-01-15T11:02:31;2.40;99.90
4725;DHT22;2376;53.544;10.226;2024-01-15T11:04:58;2.40;99.90
4725;DHT22;2376;53.544;10.226;2024-01-15T11:07:26;2.40;99.90
4725;DHT22;2376;53.544;10.226;2024-01-15T11:09:53;2.40;99.90
4725;DHT22;2376;53.544;10.226;2024-01-15T11:12:20;2.40;99.90
4725;DHT22;2376;53.544;10.226;2024-01-15T11:14:47;2.40;99.90
4725;DHT22;2376;53.544;10.226;2024-01-15T11:17:16;2.40;99.90
4725;DHT22;2376;53.544;10.226;2024-01-15T11:19:44;2.40;99.90
4725;DHT22;2376;53.544;10.226;2024-01-15T11:22:49;2.40;99.90
4725;DHT22;2376;53.544;10.226;2024-01-15T11:25:17;2.40;99.90
4725;DHT22;2376;53.544;10.226;2024-01-15T11:27:44;2.40;99.90
4725;DHT22;2376;53.544;10.226;2024-01-15T11:30:13;2.40;99.90
4725;DHT22;2376;53.544;10.226;2024-01-15T11:32:40;2.40;99.90
4725;DHT22;2376;53.544;10.226;2024-01-15T11:35:08;2.30;99.90
4725;DHT22;2376;53.544;10.226;2024-01-15T11:37:58;2.40;99.90
4725;DHT22;2376;53.544;10.226;2024-01-15T11:40:41;2.40;99.90
4725;DHT22;2376;53.544;10.226;2024-01-15T11:43:10;2.40;99.90
4725;DHT22;2376;53.544;10.226;2024-01-15T11:45:39;2.40;99.90
4725;DHT22;2376;53.544;10.226;2024-01-15T11:48:10;2.40;99.90
4725;DHT22;2376;53.544;10.226;2024-01-15T11:50:40;2.30;99.90
4725;DHT22;2376;53.544;10.226;2024-01-15T11:53:21;2.40;99.90
4725;DHT22;2376;53.544;10.226;2024-01-15T11:55:52;2.40;99.90
4725;DHT22;2376;53.544;10.226;2024-01-15T11:58:22;2.50;99.90
4725;DHT22;2376;53.544;10.226;2024-01-15T12:00:51;2.50;99.90
4725;DHT22;2376;53.544;10.226;2024-01-15T12:03:20;2.50;99.90
4725;DHT22;2376;53.544;10.226;2024-01-15T12:05:47;2.50;99.90
4725;DHT22;2376;53.544;10.226;2024-01-15T12:08:15;2.50;99.90
4725;DHT22;2376;53.544;10.226;2024-01-15T12:10:46;2.60;99.90
4725;DHT22;2376;53.544;10.226;2024-01-15T12:13:15;2.60;99.90
4725;DHT22;2376;53.544;10.226;2024-01-15T12:15:44;2.70;99.90
4725;DHT22;2376;53.544;10.226;2024-01-15T12:18:12;2.70;99.90
4725;DHT22;2376;53.544;10.226;2024-01-15T12:20:40;2.70;99.90
4725;DHT22;2376;53.544;10.226;2024-01-15T12:23:07;2.70;99.90
4725;DHT22;2376;53.544;10.226;2024-01-15T12:25:36;2.70;99.90
4725;DHT22;2376;53.544;10.226;2024-01-15T12:28:04;2.70;99.90
4725;DHT22;2376;53.544;10.226;2024-01-15T12:30:33;2.70;99.90
4725;DHT22;2376;53.544;10.226;2024-01-15T12:33:01;2.70;99.90
4725;DHT22;2376;53.544;10.226;2024-01-15T12:35:29;2.80;99.90
4725;DHT22;2376;53.544;10.226;2024-01-15T12:37:56;2.70;99.90
4725;DHT22;2376;53.544;10.226;2024-01-15T12:40:23;2.70;99.90
4725;DHT22;2376;53.544;10.226;2024-01-15T12:42:52;2.70;99.90
4725;DHT22;2376;53.544;10.226;2024-01-15T12:45:18;2.80;99.90
4725;DHT22;2376;53.544;10.226;2024-01-15T12:47:46;2.70;99.90
4725;DHT22;2376;53.544;10.226;2024-01-15T12:50:13;2.80;99.90
4725;DHT22;2376;53.544;10.226;2024-01-15T12:52:40;2.80;99.90
4725;DHT22;2376;53.544;10.226;2024-01-15T12:55:08;2.80;99.90
4725;DHT22;2376;53.544;10.226;2024-01-15T12:57:36;2.80;99.90
4725;DHT22;2376;53.544;10.226;2024-01-15T13:00:05;2.80;99.90
4725;DHT22;2376;53.544;10.226;2024-01-15T13:02:36;2.80;99.90
4725;DHT22;2376;53.544;10.226;2024-01-15T13:05:03;2.80;99.90
4725;DHT22;2376;53.544;10.226;2024-01-15T13:07:31;2.70;99.90
4725;DHT22;2376;53.544;10.226;2024-01-15T13:09:57;2.60;99.90
4725;DHT22;2376;53.544;10.226;2024-01-15T13:12:25;2.60;99.90
4725;DHT22;2376;53.544;10.226;2024-01-15T13:14:51;2.70;99.90
4725;DHT22;2376;53.544;10.226;2024-01-15T13:17:19;2.70;99.90
4725;DHT22;2376;53.544;10.226;2024-01-15T13:19:47;2.70;99.90
4725;DHT22;2376;53.544;10.226;2024-01-15T13:22:14;2.70;99.90
4725;DHT22;2376;53.544;10.226;2024-01-15T13:24:41;2.70;99.90
4725;DHT22;2376;53.544;10.226;2024-01-15T13:27:08;2.70;99.90
4725;DHT22;2376;53.544;10.226;2024-01-15T13:29:34;2.80;99.90
4725;DHT22;2376;53.544;10.226;2024-01-15T13:32:01;2.80;99.90
4725;DHT22;2376;53.544;10.226;2024-01-15T13:34:29;2.70;99.90
4725;DHT22;2376;53.544;10.226;2024-01-15T13:36:56;2.70;99.90
4725;DHT22;2376;53.544;10.226;2024-01-15T13:39:23;2.80;99.90
4725;DHT22;2376;53.544;10.226;2024-01-15T13:41:49;2.80;99.90
4725;DHT22;2376;53.544;10.226;2024-01-15T13:44:16;2.80;99.90
4725;DHT22;2376;53.544;10.226;2024-01-15T13:46:43;2.80;99.90
4725;DHT22;2376;53.544;10.226;2024-01-15T13:49:09;2.70;99.90
4725;DHT22;2376;53.544;10.226;2024-01-15T13:51:37;2.80;99.90
4725;DHT22;2376;53.544;10.226;2024-01-15T13:54:05;2.80;99.90
4725;DHT22;2376;53.544;10.226;2024-01-15T13:56:33;2.80;99.90
4725;DHT22;2376;53.544;10.226;2024-01-15T13:59:00;2.80;99.90
4725;DHT22;2376;53.544;10.226;2024-01-15T14:01:29;2.80;99.90
4725;DHT22;2376;53.544;10.226;2024-01-15T14:03:56;2.70;99.90
4725;DHT22;2376;53.544;10.226;2024-01-15T14:06:22;2.70;99.90
4725;DHT22;2376;53.544;10.226;2024-01-15T14:08:50;2.70;99.90
4725;DHT22;2376;53.544;10.226;2024-01-15T14:11:17;2.70;99.90
4725;DHT22;2376;53.544;10.226;2024-01-15T14:13:44;2.70;99.90
4725;DHT22;2376;53.544;10.226;2024-01-15T14:16:10;2.60;99.90
4725;DHT22;2376;53.544;10.226;2024-01-15T14:18:37;2.70;99.90
4725;DHT22;2376;53.544;10.226;2024-01-15T14:21:04;2.60;99.90
4725;DHT22;2376;53.544;10.226;2024-01-15T14:23:31;2.50;99.90
4725;DHT22;2376;53.544;10.226;2024-01-15T14:25:59;2.50;99.90
4725;DHT22;2376;53.544;10.226;2024-01-15T14:28:25;2.50;99.90
4725;DHT22;2376;53.544;10.226;2024-01-15T14:30:55;2.50;99.90
4725;DHT22;2376;53.544;10.226;2024-01-15T14:33:25;2.50;99.90
4725;DHT22;2376;53.544;10.226;2024-01-15T14:35:52;2.50;99.90
4725;DHT22;2376;53.544;10.226;2024-01-15T14:38:19;2.50;99.90
4725;DHT22;2376;53.544;10.226;2024-01-15T14:40:45;2.40;99.90
4725;DHT22;2376;53.544;10.226;2024-01-15T14:43:13;2.30;99.90
4725;DHT22;2376;53.544;10.226;2024-01-15T14:45:43;2.30;99.90
4725;DHT22;2376;53.544;10.226;2024-01-15T14:48:10;2.30;99.90
4725;DHT22;2376;53.544;10.226;2024-01-15T14:50:39;2.40;99.90
4725;DHT22;2376;53.544;10.226;2024-01-15T14:53:06;2.30;99.90
4725;DHT22;2376;53.544;10.226;2024-01-15T14:55:32;2.30;99.90
4725;DHT22;2376;53.544;10.226;2024-01-15T14:57:59;2.30;99.90
4725;DHT22;2376;53.544;10.226;2024-01-15T15:00:28;2.30;99.90
4725;DHT22;2376;53.544;10.226;2024-01-15T15:02:54;2.20;99.90
4725;DHT22;2376;53.544;10.226;2024-01-15T15:05:21;2.20;99.90
4725;DHT22;2376;53.544;10.226;2024-01-15T15:07:48;2.20;99.90
4725;DHT22;2376;53.544;10.226;2024-01-15T15:10:15;2.10;99.90
4725;DHT22;2376;53.544;10.226;2024-01-15T15:12:42;2.00;99.90
4725;DHT22;2376;53.544;10.226;2024-01-15T15:15:09;1.90;99.90
4725;DHT22;2376;53.544;10.226;2024-01-15T15:17:39;1.90;99.90
4725;DHT22;2376;53.544;10.226;2024-01-15T15:20:06;1.90;99.90
4725;DHT22;2376;53.544;10.226;2024-01-15T15:22:33;1.80;99.90
4725;DHT22;2376;53.544;10.226;2024-01-15T15:25:00;1.80;99.90
4725;DHT22;2376;53.544;10.226;2024-01-15T15:27:26;1.80;99.90
4725;DHT22;2376;53.544;10.226;2024-01-15T15:29:54;1.80;99.90
4725;DHT22;2376;53.544;10.226;2024-01-15T15:32:20;1.70;99.90
4725;DHT22;2376;53.544;10.226;2024-01-15T15:34:48;1.70;99.90
4725;DHT22;2376;53.544;10.226;2024-01-15T15:37:15;1.60;99.90
4725;DHT22;2376;53.544;10.226;2024-01-15T15:39:42;1.60;99.90
4725;DHT22;2376;53.544;10.226;2024-01-15T15:42:08;1.50;99.90
4725;DHT22;2376;53.544;10.226;2024-01-15T15:44:35;1.50;99.90
4725;DHT22;2376;53.544;10.226;2024-01-15T15:47:03;1.50;99.90
4725;DHT22;2376;53.544;10.226;2024-01-15T15:49:30;1.50;99.90
4725;DHT22;2376;53.544;10.226;2024-01-15T15:51:58;1.50;99.90
4725;DHT22;2376;53.544;10.226;2024-01-15T15:54:24;1.50;99.90
4725;DHT22;2376;53.544;10.226;2024-01-15T15:56:51;1.40;99.90
4725;DHT22;2376;53.544;10.226;2024-01-15T15:59:18;1.50;99.90
4725;DHT22;2376;53.544;10.226;2024-01-15T16:01:47;1.40;99.90